sensor_id;sensor_type;location;lat;lon;timestamp;P1;durP1;ratioP1;P2;durP2;ratioP2
38499;SDS011;24269;51.894;4.622;2022-11-20T00:02:03;12.32;;;6.45;;
38499;SDS011;24269;51.894;4.622;2022-11-20T00:04:28;12.57;;;5.47;;
38499;SDS011;24269;51.894;4.622;2022-11-20T00:06:54;12.38;;;5.68;;
38499;SDS011;24269;51.894;4.622;2022-11-20T00:09:19;13.23;;;6.30;;
38499;SDS011;24269;51.894;4.622;2022-11-20T00:11:45;12.48;;;6.32;;
38499;SDS011;24269;51.894;4.622;2022-11-20T00:14:11;12.60;;;5.95;;
38499;SDS011;24269;51.894;4.622;2022-11-20T00:16:36;13.30;;;5.75;;
38499;SDS011;24269;51.894;4.622;2022-11-20T00:19:02;13.63;;;6.65;;
38499;SDS011;24269;51.894;4.622;2022-11-20T00:21:28;16.85;;;7.40;;
38499;SDS011;24269;51.894;4.622;2022-11-20T00:23:55;15.57;;;8.63;;
38499;SDS011;24269;51.894;4.622;2022-11-20T00:26:22;14.15;;;7.00;;
38499;SDS011;24269;51.894;4.622;2022-11-20T00:28:50;11.30;;;5.72;;
38499;SDS011;24269;51.894;4.622;2022-11-20T00:31:17;11.32;;;5.68;;
38499;SDS011;24269;51.894;4.622;2022-11-20T00:33:44;14.57;;;6.43;;
38499;SDS011;24269;51.894;4.622;2022-11-20T00:36:11;13.02;;;5.93;;
38499;SDS011;24269;51.894;4.622;2022-11-20T00:38:38;14.18;;;5.65;;
38499;SDS011;24269;51.894;4.622;2022-11-20T00:41:05;14.07;;;6.40;;
38499;SDS011;24269;51.894;4.622;2022-11-20T00:43:34;9.70;;;5.55;;
38499;SDS011;24269;51.894;4.622;2022-11-20T00:46:05;12.85;;;6.47;;
38499;SDS011;24269;51.894;4.622;2022-11-20T00:48:34;11.10;;;5.75;;
38499;SDS011;24269;51.894;4.622;2022-11-20T00:51:00;11.32;;;6.18;;
38499;SDS011;24269;51.894;4.622;2022-11-20T00:53:26;12.43;;;6.38;;
38499;SDS011;24269;51.894;4.622;2022-11-20T00:55:52;13.18;;;6.13;;
38499;SDS011;24269;51.894;4.622;2022-11-20T00:58:22;9.23;;;4.70;;
38499;SDS011;24269;51.894;4.622;2022-11-20T01:00:49;10.90;;;6.00;;
38499;SDS011;24269;51.894;4.622;2022-11-20T01:03:15;13.68;;;6.88;;
38499;SDS011;24269;51.894;4.622;2022-11-20T01:05:44;12.50;;;6.10;;
38499;SDS011;24269;51.894;4.622;2022-11-20T01:08:09;13.32;;;6.20;;
38499;SDS011;24269;51.894;4.622;2022-11-20T01:10:35;13.38;;;6.18;;
38499;SDS011;24269;51.894;4.622;2022-11-20T01:13:01;15.50;;;6.05;;
38499;SDS011;24269;51.894;4.622;2022-11-20T01:15:45;11.02;;;5.60;;
38499;SDS011;24269;51.894;4.622;2022-11-20T01:18:11;12.27;;;5.70;;
38499;SDS011;24269;51.894;4.622;2022-11-20T01:20:36;12.57;;;5.47;;
38499;SDS011;24269;51.894;4.622;2022-11-20T01:23:02;12.63;;;6.10;;
38499;SDS011;24269;51.894;4.622;2022-11-20T01:25:28;13.85;;;6.20;;
38499;SDS011;24269;51.894;4.622;2022-11-20T01:27:54;14.23;;;6.70;;
38499;SDS011;24269;51.894;4.622;2022-11-20T01:30:20;11.77;;;5.15;;
38499;SDS011;24269;51.894;4.622;2022-11-20T01:32:45;16.95;;;6.63;;
38499;SDS011;24269;51.894;4.622;2022-11-20T01:35:11;12.35;;;5.97;;
38499;SDS011;24269;51.894;4.622;2022-11-20T01:37:36;9.90;;;5.30;;
38499;SDS011;24269;51.894;4.622;2022-11-20T01:40:02;13.23;;;6.22;;
38499;SDS011;24269;51.894;4.622;2022-11-20T01:42:28;11.57;;;6.00;;
38499;SDS011;24269;51.894;4.622;2022-11-20T01:45:46;13.98;;;6.72;;
38499;SDS011;24269;51.894;4.622;2022-11-20T01:48:18;13.15;;;5.78;;
38499;SDS011;24269;51.894;4.622;2022-11-20T01:50:46;12.52;;;6.55;;
38499;SDS011;24269;51.894;4.622;2022-11-20T01:53:12;12.18;;;5.97;;
38499;SDS011;24269;51.894;4.622;2022-11-20T01:58:10;13.50;;;5.70;;
38499;SDS011;24269;51.894;4.622;2022-11-20T02:00:37;11.45;;;5.68;;
38499;SDS011;24269;51.894;4.622;2022-11-20T02:03:04;9.80;;;5.13;;
38499;SDS011;24269;51.894;4.622;2022-11-20T02:08:23;9.50;;;5.18;;
38499;SDS011;24269;51.894;4.622;2022-11-20T02:10:49;14.57;;;5.47;;
38499;SDS011;24269;51.894;4.622;2022-11-20T02:13:15;13.85;;;6.28;;
38499;SDS011;24269;51.894;4.622;2022-11-20T02:16:00;13.43;;;6.03;;
38499;SDS011;24269;51.894;4.622;2022-11-20T02:18:26;13.88;;;6.43;;
38499;SDS011;24269;51.894;4.622;2022-11-20T02:20:58;14.10;;;6.55;;
38499;SDS011;24269;51.894;4.622;2022-11-20T02:27:10;13.38;;;5.88;;
38499;SDS011;24269;51.894;4.622;2022-11-20T02:29:36;12.57;;;6.07;;
38499;SDS011;24269;51.894;4.622;2022-11-20T02:32:17;11.27;;;5.82;;
38499;SDS011;24269;51.894;4.622;2022-11-20T02:34:50;12.40;;;6.18;;
38499;SDS011;24269;51.894;4.622;2022-11-20T02:37:16;12.98;;;5.70;;
38499;SDS011;24269;51.894;4.622;2022-11-20T02:39:44;11.68;;;5.30;;
38499;SDS011;24269;51.894;4.622;2022-11-20T02:42:11;11.38;;;5.38;;
38499;SDS011;24269;51.894;4.622;2022-11-20T02:44:37;13.48;;;6.18;;
38499;SDS011;24269;51.894;4.622;2022-11-20T02:47:02;12.35;;;5.97;;
38499;SDS011;24269;51.894;4.622;2022-11-20T02:49:28;14.73;;;6.43;;
38499;SDS011;24269;51.894;4.622;2022-11-20T02:51:53;14.00;;;6.47;;
38499;SDS011;24269;51.894;4.622;2022-11-20T02:54:19;15.95;;;5.93;;
38499;SDS011;24269;51.894;4.622;2022-11-20T02:56:45;13.32;;;5.93;;
38499;SDS011;24269;51.894;4.622;2022-11-20T02:59:10;12.55;;;6.40;;
38499;SDS011;24269;51.894;4.622;2022-11-20T03:01:36;11.70;;;5.70;;
38499;SDS011;24269;51.894;4.622;2022-11-20T03:04:02;11.57;;;5.38;;
38499;SDS011;24269;51.894;4.622;2022-11-20T03:06:28;12.93;;;6.18;;
38499;SDS011;24269;51.894;4.622;2022-11-20T03:08:53;16.02;;;6.32;;
38499;SDS011;24269;51.894;4.622;2022-11-20T03:11:19;13.82;;;6.03;;
38499;SDS011;24269;51.894;4.622;2022-11-20T03:13:45;12.07;;;5.90;;
38499;SDS011;24269;51.894;4.622;2022-11-20T03:16:20;15.13;;;7.20;;
38499;SDS011;24269;51.894;4.622;2022-11-20T03:18:47;14.85;;;6.63;;
38499;SDS011;24269;51.894;4.622;2022-11-20T03:21:14;13.00;;;6.18;;
38499;SDS011;24269;51.894;4.622;2022-11-20T03:23:41;12.52;;;6.47;;
38499;SDS011;24269;51.894;4.622;2022-11-20T03:26:17;13.30;;;6.60;;
38499;SDS011;24269;51.894;4.622;2022-11-20T03:28:48;13.38;;;6.38;;
38499;SDS011;24269;51.894;4.622;2022-11-20T03:31:15;12.57;;;6.32;;
38499;SDS011;24269;51.894;4.622;2022-11-20T03:33:42;11.63;;;5.55;;
38499;SDS011;24269;51.894;4.622;2022-11-20T03:36:09;13.52;;;7.13;;
38499;SDS011;24269;51.894;4.622;2022-11-20T03:38:37;17.55;;;7.20;;
38499;SDS011;24269;51.894;4.622;2022-11-20T03:41:04;13.43;;;6.55;;
38499;SDS011;24269;51.894;4.622;2022-11-20T03:43:32;13.20;;;6.35;;
38499;SDS011;24269;51.894;4.622;2022-11-20T03:45:58;13.40;;;6.10;;
38499;SDS011;24269;51.894;4.622;2022-11-20T03:48:23;15.50;;;6.38;;
38499;SDS011;24269;51.894;4.622;2022-11-20T03:50:49;13.52;;;6.50;;
38499;SDS011;24269;51.894;4.622;2022-11-20T03:53:16;16.58;;;6.85;;
38499;SDS011;24269;51.894;4.622;2022-11-20T03:55:43;14.05;;;6.07;;
38499;SDS011;24269;51.894;4.622;2022-11-20T03:58:09;13.23;;;6.53;;
38499;SDS011;24269;51.894;4.622;2022-11-20T04:00:35;12.70;;;6.00;;
38499;SDS011;24269;51.894;4.622;2022-11-20T04:03:01;11.65;;;5.90;;
38499;SDS011;24269;51.894;4.622;2022-11-20T04:05:27;12.05;;;5.43;;
38499;SDS011;24269;51.894;4.622;2022-11-20T04:07:53;12.18;;;6.00;;
38499;SDS011;24269;51.894;4.622;2022-11-20T04:10:19;12.15;;;5.95;;
38499;SDS011;24269;51.894;4.622;2022-11-20T04:12:44;11.85;;;6.13;;
38499;SDS011;24269;51.894;4.622;2022-11-20T04:15:10;12.43;;;6.32;;
38499;SDS011;24269;51.894;4.622;2022-11-20T04:17:36;13.45;;;6.93;;
38499;SDS011;24269;51.894;4.622;2022-11-20T04:20:01;12.75;;;6.28;;
38499;SDS011;24269;51.894;4.622;2022-11-20T04:22:27;17.42;;;5.78;;
38499;SDS011;24269;51.894;4.622;2022-11-20T04:24:53;12.68;;;6.10;;
38499;SDS011;24269;51.894;4.622;2022-11-20T04:27:18;12.90;;;5.65;;
38499;SDS011;24269;51.894;4.622;2022-11-20T04:29:44;13.88;;;6.80;;
38499;SDS011;24269;51.894;4.622;2022-11-20T04:32:10;15.63;;;6.90;;
38499;SDS011;24269;51.894;4.622;2022-11-20T04:34:35;13.35;;;6.47;;
38499;SDS011;24269;51.894;4.622;2022-11-20T04:37:01;14.73;;;5.97;;
38499;SDS011;24269;51.894;4.622;2022-11-20T04:39:26;12.77;;;5.97;;
38499;SDS011;24269;51.894;4.622;2022-11-20T04:41:52;10.80;;;5.47;;
38499;SDS011;24269;51.894;4.622;2022-11-20T04:44:37;13.73;;;6.68;;
38499;SDS011;24269;51.894;4.622;2022-11-20T04:47:03;12.43;;;6.63;;
38499;SDS011;24269;51.894;4.622;2022-11-20T04:49:29;15.95;;;6.47;;
38499;SDS011;24269;51.894;4.622;2022-11-20T04:51:56;14.05;;;6.10;;
38499;SDS011;24269;51.894;4.622;2022-11-20T04:54:22;12.90;;;6.70;;
38499;SDS011;24269;51.894;4.622;2022-11-20T04:56:48;13.68;;;6.30;;
38499;SDS011;24269;51.894;4.622;2022-11-20T04:59:13;13.57;;;6.70;;
38499;SDS011;24269;51.894;4.622;2022-11-20T05:01:39;14.48;;;7.13;;
38499;SDS011;24269;51.894;4.622;2022-11-20T05:04:05;15.55;;;6.50;;
38499;SDS011;24269;51.894;4.622;2022-11-20T05:06:31;18.20;;;7.38;;
38499;SDS011;24269;51.894;4.622;2022-11-20T05:08:57;15.13;;;6.32;;
38499;SDS011;24269;51.894;4.622;2022-11-20T05:11:23;12.13;;;5.90;;
38499;SDS011;24269;51.894;4.622;2022-11-20T05:13:49;15.40;;;7.78;;
38499;SDS011;24269;51.894;4.622;2022-11-20T05:16:19;16.58;;;7.25;;
38499;SDS011;24269;51.894;4.622;2022-11-20T05:18:47;12.57;;;6.97;;
38499;SDS011;24269;51.894;4.622;2022-11-20T05:21:13;14.55;;;6.47;;
38499;SDS011;24269;51.894;4.622;2022-11-20T05:23:39;16.92;;;7.28;;
38499;SDS011;24269;51.894;4.622;2022-11-20T05:26:06;14.73;;;7.10;;
38499;SDS011;24269;51.894;4.622;2022-11-20T05:28:36;15.00;;;7.00;;
38499;SDS011;24269;51.894;4.622;2022-11-20T05:31:11;15.18;;;6.72;;
38499;SDS011;24269;51.894;4.622;2022-11-20T05:33:39;13.77;;;6.72;;
38499;SDS011;24269;51.894;4.622;2022-11-20T05:36:07;15.73;;;7.30;;
38499;SDS011;24269;51.894;4.622;2022-11-20T05:38:34;16.63;;;6.50;;
38499;SDS011;24269;51.894;4.622;2022-11-20T05:41:07;14.52;;;6.90;;
38499;SDS011;24269;51.894;4.622;2022-11-20T05:43:36;15.30;;;6.82;;
38499;SDS011;24269;51.894;4.622;2022-11-20T05:46:03;16.25;;;7.03;;
38499;SDS011;24269;51.894;4.622;2022-11-20T05:48:30;20.88;;;7.15;;
38499;SDS011;24269;51.894;4.622;2022-11-20T05:50:57;14.75;;;6.57;;
38499;SDS011;24269;51.894;4.622;2022-11-20T05:53:23;16.02;;;7.18;;
38499;SDS011;24269;51.894;4.622;2022-11-20T05:55:56;16.38;;;7.43;;
38499;SDS011;24269;51.894;4.622;2022-11-20T05:58:25;11.20;;;6.00;;
38499;SDS011;24269;51.894;4.622;2022-11-20T06:00:51;13.23;;;6.47;;
38499;SDS011;24269;51.894;4.622;2022-11-20T06:03:17;12.73;;;6.50;;
38499;SDS011;24269;51.894;4.622;2022-11-20T06:05:42;14.98;;;6.97;;
38499;SDS011;24269;51.894;4.622;2022-11-20T06:08:08;14.40;;;6.93;;
38499;SDS011;24269;51.894;4.622;2022-11-20T06:10:33;16.08;;;7.28;;
38499;SDS011;24269;51.894;4.622;2022-11-20T06:12:59;16.45;;;7.13;;
38499;SDS011;24269;51.894;4.622;2022-11-20T06:15:25;13.05;;;6.75;;
38499;SDS011;24269;51.894;4.622;2022-11-20T06:17:54;15.43;;;7.45;;
38499;SDS011;24269;51.894;4.622;2022-11-20T06:20:23;16.30;;;7.35;;
38499;SDS011;24269;51.894;4.622;2022-11-20T06:22:48;15.85;;;8.05;;
38499;SDS011;24269;51.894;4.622;2022-11-20T06:25:14;14.88;;;7.68;;
38499;SDS011;24269;51.894;4.622;2022-11-20T06:27:39;14.63;;;7.30;;
38499;SDS011;24269;51.894;4.622;2022-11-20T06:30:05;16.30;;;7.15;;
38499;SDS011;24269;51.894;4.622;2022-11-20T06:32:32;18.08;;;8.70;;
38499;SDS011;24269;51.894;4.622;2022-11-20T06:34:58;15.82;;;6.97;;
38499;SDS011;24269;51.894;4.622;2022-11-20T06:37:23;12.80;;;7.22;;
38499;SDS011;24269;51.894;4.622;2022-11-20T06:39:49;17.73;;;7.97;;
38499;SDS011;24269;51.894;4.622;2022-11-20T06:42:14;14.10;;;7.22;;
38499;SDS011;24269;51.894;4.622;2022-11-20T06:44:40;14.55;;;7.30;;
38499;SDS011;24269;51.894;4.622;2022-11-20T06:47:05;14.45;;;6.90;;
38499;SDS011;24269;51.894;4.622;2022-11-20T06:49:31;14.77;;;7.50;;
38499;SDS011;24269;51.894;4.622;2022-11-20T06:51:57;21.73;;;7.78;;
38499;SDS011;24269;51.894;4.622;2022-11-20T06:54:22;18.33;;;8.23;;
38499;SDS011;24269;51.894;4.622;2022-11-20T06:56:48;16.52;;;8.07;;
38499;SDS011;24269;51.894;4.622;2022-11-20T06:59:13;17.83;;;7.97;;
38499;SDS011;24269;51.894;4.622;2022-11-20T07:01:39;19.25;;;8.60;;
38499;SDS011;24269;51.894;4.622;2022-11-20T07:04:05;16.00;;;7.95;;
38499;SDS011;24269;51.894;4.622;2022-11-20T07:06:30;16.00;;;7.75;;
38499;SDS011;24269;51.894;4.622;2022-11-20T07:08:56;18.15;;;8.50;;
38499;SDS011;24269;51.894;4.622;2022-11-20T07:11:22;19.58;;;7.82;;
38499;SDS011;24269;51.894;4.622;2022-11-20T07:13:48;18.65;;;8.10;;
38499;SDS011;24269;51.894;4.622;2022-11-20T07:16:15;20.85;;;8.13;;
38499;SDS011;24269;51.894;4.622;2022-11-20T07:18:41;16.30;;;8.35;;
38499;SDS011;24269;51.894;4.622;2022-11-20T07:21:08;19.55;;;8.23;;
38499;SDS011;24269;51.894;4.622;2022-11-20T07:23:35;16.83;;;7.72;;
38499;SDS011;24269;51.894;4.622;2022-11-20T07:26:07;16.27;;;7.63;;
38499;SDS011;24269;51.894;4.622;2022-11-20T07:28:35;15.82;;;7.80;;
38499;SDS011;24269;51.894;4.622;2022-11-20T07:31:05;16.98;;;7.95;;
38499;SDS011;24269;51.894;4.622;2022-11-20T07:33:34;21.17;;;8.77;;
38499;SDS011;24269;51.894;4.622;2022-11-20T07:36:00;18.80;;;8.55;;
38499;SDS011;24269;51.894;4.622;2022-11-20T07:38:26;19.48;;;8.68;;
38499;SDS011;24269;51.894;4.622;2022-11-20T07:40:53;15.55;;;8.40;;
38499;SDS011;24269;51.894;4.622;2022-11-20T07:43:20;17.27;;;8.63;;
38499;SDS011;24269;51.894;4.622;2022-11-20T07:45:47;17.83;;;9.75;;
38499;SDS011;24269;51.894;4.622;2022-11-20T07:48:13;18.25;;;8.23;;
38499;SDS011;24269;51.894;4.622;2022-11-20T07:50:42;16.75;;;8.52;;
38499;SDS011;24269;51.894;4.622;2022-11-20T07:53:08;19.75;;;10.00;;
38499;SDS011;24269;51.894;4.622;2022-11-20T07:55:34;22.23;;;10.68;;
38499;SDS011;24269;51.894;4.622;2022-11-20T07:57:59;21.40;;;9.77;;
38499;SDS011;24269;51.894;4.622;2022-11-20T08:00:25;21.40;;;10.57;;
38499;SDS011;24269;51.894;4.622;2022-11-20T08:02:52;20.63;;;9.82;;
38499;SDS011;24269;51.894;4.622;2022-11-20T08:05:18;21.25;;;10.93;;
38499;SDS011;24269;51.894;4.622;2022-11-20T08:07:44;27.42;;;12.27;;
38499;SDS011;24269;51.894;4.622;2022-11-20T08:10:11;23.75;;;10.55;;
38499;SDS011;24269;51.894;4.622;2022-11-20T08:12:48;25.23;;;11.15;;
38499;SDS011;24269;51.894;4.622;2022-11-20T08:15:34;18.63;;;9.80;;
38499;SDS011;24269;51.894;4.622;2022-11-20T08:18:00;23.30;;;10.45;;
38499;SDS011;24269;51.894;4.622;2022-11-20T08:20:27;22.70;;;9.60;;
38499;SDS011;24269;51.894;4.622;2022-11-20T08:22:56;24.65;;;10.98;;
38499;SDS011;24269;51.894;4.622;2022-11-20T08:25:24;23.10;;;10.57;;
38499;SDS011;24269;51.894;4.622;2022-11-20T08:27:50;21.77;;;10.82;;
38499;SDS011;24269;51.894;4.622;2022-11-20T08:30:17;23.67;;;11.23;;
38499;SDS011;24269;51.894;4.622;2022-11-20T08:32:42;22.10;;;10.88;;
38499;SDS011;24269;51.894;4.622;2022-11-20T08:35:09;19.98;;;10.23;;
38499;SDS011;24269;51.894;4.622;2022-11-20T08:37:35;19.52;;;10.20;;
38499;SDS011;24269;51.894;4.622;2022-11-20T08:40:02;22.77;;;9.90;;
38499;SDS011;24269;51.894;4.622;2022-11-20T08:42:30;21.38;;;11.35;;
38499;SDS011;24269;51.894;4.622;2022-11-20T08:44:55;19.27;;;10.50;;
38499;SDS011;24269;51.894;4.622;2022-11-20T08:47:21;23.50;;;11.57;;
38499;SDS011;24269;51.894;4.622;2022-11-20T08:49:47;19.63;;;9.95;;
38499;SDS011;24269;51.894;4.622;2022-11-20T08:52:13;21.67;;;10.73;;
38499;SDS011;24269;51.894;4.622;2022-11-20T08:54:39;22.42;;;10.23;;
38499;SDS011;24269;51.894;4.622;2022-11-20T08:57:04;22.15;;;10.82;;
38499;SDS011;24269;51.894;4.622;2022-11-20T08:59:31;19.88;;;10.07;;
38499;SDS011;24269;51.894;4.622;2022-11-20T09:01:56;19.67;;;9.98;;
38499;SDS011;24269;51.894;4.622;2022-11-20T09:04:23;21.20;;;9.65;;
38499;SDS011;24269;51.894;4.622;2022-11-20T09:06:49;20.33;;;9.82;;
38499;SDS011;24269;51.894;4.622;2022-11-20T09:09:16;18.70;;;9.23;;
38499;SDS011;24269;51.894;4.622;2022-11-20T09:11:43;21.25;;;10.00;;
38499;SDS011;24269;51.894;4.622;2022-11-20T09:14:09;23.45;;;10.65;;
38499;SDS011;24269;51.894;4.622;2022-11-20T09:16:34;20.33;;;10.38;;
38499;SDS011;24269;51.894;4.622;2022-11-20T09:19:00;18.67;;;9.05;;
38499;SDS011;24269;51.894;4.622;2022-11-20T09:21:27;18.55;;;9.80;;
38499;SDS011;24269;51.894;4.622;2022-11-20T09:23:53;19.63;;;10.15;;
38499;SDS011;24269;51.894;4.622;2022-11-20T09:26:19;24.15;;;10.40;;
38499;SDS011;24269;51.894;4.622;2022-11-20T09:28:44;18.45;;;9.75;;
38499;SDS011;24269;51.894;4.622;2022-11-20T09:31:28;18.00;;;9.43;;
38499;SDS011;24269;51.894;4.622;2022-11-20T09:33:54;21.05;;;9.73;;
38499;SDS011;24269;51.894;4.622;2022-11-20T09:36:20;22.08;;;10.75;;
38499;SDS011;24269;51.894;4.622;2022-11-20T09:38:46;19.45;;;9.38;;
38499;SDS011;24269;51.894;4.622;2022-11-20T09:46:50;20.15;;;9.60;;
38499;SDS011;24269;51.894;4.622;2022-11-20T09:49:23;24.02;;;10.52;;
38499;SDS011;24269;51.894;4.622;2022-11-20T09:55:11;21.77;;;9.30;;
38499;SDS011;24269;51.894;4.622;2022-11-20T09:57:40;20.88;;;10.52;;
38499;SDS011;24269;51.894;4.622;2022-11-20T10:00:11;20.23;;;10.45;;
38499;SDS011;24269;51.894;4.622;2022-11-20T10:05:45;20.17;;;10.02;;
38499;SDS011;24269;51.894;4.622;2022-11-20T10:08:17;18.67;;;9.57;;
38499;SDS011;24269;51.894;4.622;2022-11-20T10:29:42;22.67;;;10.65;;
38499;SDS011;24269;51.894;4.622;2022-11-20T10:32:20;23.87;;;11.80;;
38499;SDS011;24269;51.894;4.622;2022-11-20T10:37:41;23.65;;;11.20;;
38499;SDS011;24269;51.894;4.622;2022-11-20T10:43:18;23.13;;;10.95;;
38499;SDS011;24269;51.894;4.622;2022-11-20T10:45:58;23.98;;;11.73;;
38499;SDS011;24269;51.894;4.622;2022-11-20T10:48:28;22.17;;;11.10;;
38499;SDS011;24269;51.894;4.622;2022-11-20T11:03:33;28.58;;;12.48;;
38499;SDS011;24269;51.894;4.622;2022-11-20T11:06:01;26.35;;;12.32;;
38499;SDS011;24269;51.894;4.622;2022-11-20T11:08:37;28.02;;;12.85;;
38499;SDS011;24269;51.894;4.622;2022-11-20T11:11:12;29.00;;;12.45;;
38499;SDS011;24269;51.894;4.622;2022-11-20T11:13:48;31.75;;;12.95;;
38499;SDS011;24269;51.894;4.622;2022-11-20T11:16:32;31.48;;;13.65;;
38499;SDS011;24269;51.894;4.622;2022-11-20T11:19:13;28.25;;;13.52;;
38499;SDS011;24269;51.894;4.622;2022-11-20T11:21:45;28.63;;;14.23;;
38499;SDS011;24269;51.894;4.622;2022-11-20T11:24:20;27.52;;;12.52;;
38499;SDS011;24269;51.894;4.622;2022-11-20T11:29:24;31.00;;;12.02;;
38499;SDS011;24269;51.894;4.622;2022-11-20T11:32:04;33.50;;;13.48;;
38499;SDS011;24269;51.894;4.622;2022-11-20T11:34:37;30.23;;;12.82;;
38499;SDS011;24269;51.894;4.622;2022-11-20T11:37:03;29.70;;;13.57;;
38499;SDS011;24269;51.894;4.622;2022-11-20T11:39:31;29.67;;;14.27;;
38499;SDS011;24269;51.894;4.622;2022-11-20T11:41:58;30.58;;;13.68;;
38499;SDS011;24269;51.894;4.622;2022-11-20T11:44:35;27.38;;;13.15;;
38499;SDS011;24269;51.894;4.622;2022-11-20T11:47:23;31.40;;;12.70;;
38499;SDS011;24269;51.894;4.622;2022-11-20T11:53:01;30.45;;;12.98;;
38499;SDS011;24269;51.894;4.622;2022-11-20T11:55:53;29.67;;;13.07;;
38499;SDS011;24269;51.894;4.622;2022-11-20T11:58:34;35.10;;;14.65;;
38499;SDS011;24269;51.894;4.622;2022-11-20T12:03:37;29.63;;;13.45;;
38499;SDS011;24269;51.894;4.622;2022-11-20T12:06:10;34.85;;;15.93;;
38499;SDS011;24269;51.894;4.622;2022-11-20T12:11:26;29.10;;;12.43;;
38499;SDS011;24269;51.894;4.622;2022-11-20T12:14:14;27.13;;;12.52;;
38499;SDS011;24269;51.894;4.622;2022-11-20T12:17:02;25.20;;;12.25;;
38499;SDS011;24269;51.894;4.622;2022-11-20T12:19:29;28.08;;;12.68;;
38499;SDS011;24269;51.894;4.622;2022-11-20T12:24:49;32.20;;;14.55;;
38499;SDS011;24269;51.894;4.622;2022-11-20T12:27:47;33.00;;;13.55;;
38499;SDS011;24269;51.894;4.622;2022-11-20T12:30:35;26.23;;;12.90;;
38499;SDS011;24269;51.894;4.622;2022-11-20T12:53:25;33.50;;;13.77;;
38499;SDS011;24269;51.894;4.622;2022-11-20T13:01:32;28.95;;;13.45;;
38499;SDS011;24269;51.894;4.622;2022-11-20T13:06:49;29.27;;;13.77;;
38499;SDS011;24269;51.894;4.622;2022-11-20T13:09:16;34.47;;;13.77;;
38499;SDS011;24269;51.894;4.622;2022-11-20T13:14:35;30.77;;;12.73;;
38499;SDS011;24269;51.894;4.622;2022-11-20T13:22:07;30.30;;;13.60;;
38499;SDS011;24269;51.894;4.622;2022-11-20T13:24:33;37.72;;;13.00;;
38499;SDS011;24269;51.894;4.622;2022-11-20T13:29:34;30.20;;;14.20;;
38499;SDS011;24269;51.894;4.622;2022-11-20T13:32:05;34.63;;;14.65;;
38499;SDS011;24269;51.894;4.622;2022-11-20T13:34:31;34.67;;;14.38;;
38499;SDS011;24269;51.894;4.622;2022-11-20T13:36:57;30.67;;;14.48;;
38499;SDS011;24269;51.894;4.622;2022-11-20T13:39:43;33.47;;;14.98;;
38499;SDS011;24269;51.894;4.622;2022-11-20T13:42:20;33.30;;;13.70;;
38499;SDS011;24269;51.894;4.622;2022-11-20T13:45:00;35.70;;;15.37;;
38499;SDS011;24269;51.894;4.622;2022-11-20T13:47:28;35.97;;;14.73;;
38499;SDS011;24269;51.894;4.622;2022-11-20T13:49:57;40.25;;;16.25;;
38499;SDS011;24269;51.894;4.622;2022-11-20T14:01:15;34.92;;;14.65;;
38499;SDS011;24269;51.894;4.622;2022-11-20T14:03:41;42.28;;;15.40;;
38499;SDS011;24269;51.894;4.622;2022-11-20T14:06:15;34.30;;;14.07;;
38499;SDS011;24269;51.894;4.622;2022-11-20T14:08:59;35.00;;;14.88;;
38499;SDS011;24269;51.894;4.622;2022-11-20T14:11:26;37.60;;;14.07;;
38499;SDS011;24269;51.894;4.622;2022-11-20T14:16:44;42.30;;;15.52;;
38499;SDS011;24269;51.894;4.622;2022-11-20T14:21:44;40.85;;;15.20;;
38499;SDS011;24269;51.894;4.622;2022-11-20T14:24:18;39.03;;;16.23;;
38499;SDS011;24269;51.894;4.622;2022-11-20T14:26:49;41.85;;;17.35;;
38499;SDS011;24269;51.894;4.622;2022-11-20T14:29:17;40.15;;;16.55;;
38499;SDS011;24269;51.894;4.622;2022-11-20T14:31:50;42.65;;;16.83;;
38499;SDS011;24269;51.894;4.622;2022-11-20T14:34:19;46.35;;;17.15;;
38499;SDS011;24269;51.894;4.622;2022-11-20T14:36:47;42.45;;;16.33;;
38499;SDS011;24269;51.894;4.622;2022-11-20T14:39:21;43.03;;;16.77;;
38499;SDS011;24269;51.894;4.622;2022-11-20T14:41:51;44.05;;;16.35;;
38499;SDS011;24269;51.894;4.622;2022-11-20T14:44:17;43.03;;;16.88;;
38499;SDS011;24269;51.894;4.622;2022-11-20T14:46:48;38.50;;;16.02;;
38499;SDS011;24269;51.894;4.622;2022-11-20T14:49:15;39.53;;;16.27;;
38499;SDS011;24269;51.894;4.622;2022-11-20T14:51:40;42.55;;;16.65;;
38499;SDS011;24269;51.894;4.622;2022-11-20T14:56:53;44.88;;;16.17;;
38499;SDS011;24269;51.894;4.622;2022-11-20T14:59:26;41.85;;;16.17;;
38499;SDS011;24269;51.894;4.622;2022-11-20T15:01:58;37.65;;;16.05;;
38499;SDS011;24269;51.894;4.622;2022-11-20T15:04:26;42.40;;;16.95;;
38499;SDS011;24269;51.894;4.622;2022-11-20T15:06:53;38.42;;;15.80;;
38499;SDS011;24269;51.894;4.622;2022-11-20T15:09:20;38.63;;;15.70;;
38499;SDS011;24269;51.894;4.622;2022-11-20T15:11:54;41.00;;;15.90;;
38499;SDS011;24269;51.894;4.622;2022-11-20T15:14:21;42.83;;;16.05;;
38499;SDS011;24269;51.894;4.622;2022-11-20T15:16:49;40.40;;;15.43;;
38499;SDS011;24269;51.894;4.622;2022-11-20T15:19:24;39.67;;;15.63;;
38499;SDS011;24269;51.894;4.622;2022-11-20T15:21:51;42.20;;;15.73;;
38499;SDS011;24269;51.894;4.622;2022-11-20T15:24:17;40.40;;;15.60;;
38499;SDS011;24269;51.894;4.622;2022-11-20T15:26:43;40.63;;;16.40;;
38499;SDS011;24269;51.894;4.622;2022-11-20T15:29:10;39.53;;;15.82;;
38499;SDS011;24269;51.894;4.622;2022-11-20T15:31:37;38.10;;;14.80;;
38499;SDS011;24269;51.894;4.622;2022-11-20T15:34:09;44.90;;;15.32;;
38499;SDS011;24269;51.894;4.622;2022-11-20T15:36:37;37.95;;;15.23;;
38499;SDS011;24269;51.894;4.622;2022-11-20T15:39:03;36.10;;;14.93;;
38499;SDS011;24269;51.894;4.622;2022-11-20T15:41:29;32.70;;;14.10;;
38499;SDS011;24269;51.894;4.622;2022-11-20T15:43:55;39.95;;;16.58;;
38499;SDS011;24269;51.894;4.622;2022-11-20T15:46:24;37.80;;;14.65;;
38499;SDS011;24269;51.894;4.622;2022-11-20T15:48:55;33.15;;;13.45;;
38499;SDS011;24269;51.894;4.622;2022-11-20T15:51:29;33.17;;;13.73;;
38499;SDS011;24269;51.894;4.622;2022-11-20T15:53:58;33.83;;;14.52;;
38499;SDS011;24269;51.894;4.622;2022-11-20T15:56:24;36.13;;;14.82;;
38499;SDS011;24269;51.894;4.622;2022-11-20T15:58:50;37.55;;;14.60;;
38499;SDS011;24269;51.894;4.622;2022-11-20T16:01:17;37.83;;;13.95;;
38499;SDS011;24269;51.894;4.622;2022-11-20T16:03:44;41.95;;;14.82;;
38499;SDS011;24269;51.894;4.622;2022-11-20T16:06:10;38.83;;;13.82;;
38499;SDS011;24269;51.894;4.622;2022-11-20T16:08:36;34.28;;;13.48;;
38499;SDS011;24269;51.894;4.622;2022-11-20T16:11:01;38.42;;;13.98;;
38499;SDS011;24269;51.894;4.622;2022-11-20T16:13:27;36.15;;;13.95;;
38499;SDS011;24269;51.894;4.622;2022-11-20T16:16:18;35.80;;;13.93;;
38499;SDS011;24269;51.894;4.622;2022-11-20T16:19:05;32.30;;;14.38;;
38499;SDS011;24269;51.894;4.622;2022-11-20T16:21:31;30.63;;;12.18;;
38499;SDS011;24269;51.894;4.622;2022-11-20T16:24:00;35.10;;;14.60;;
38499;SDS011;24269;51.894;4.622;2022-11-20T16:26:28;28.67;;;12.30;;
38499;SDS011;24269;51.894;4.622;2022-11-20T16:28:54;35.92;;;14.45;;
38499;SDS011;24269;51.894;4.622;2022-11-20T16:31:20;32.30;;;14.45;;
38499;SDS011;24269;51.894;4.622;2022-11-20T16:33:50;32.30;;;13.63;;
38499;SDS011;24269;51.894;4.622;2022-11-20T16:36:17;34.83;;;13.57;;
38499;SDS011;24269;51.894;4.622;2022-11-20T16:38:43;34.05;;;14.25;;
38499;SDS011;24269;51.894;4.622;2022-11-20T16:41:08;34.63;;;15.38;;
38499;SDS011;24269;51.894;4.622;2022-11-20T16:44:00;37.05;;;15.32;;
38499;SDS011;24269;51.894;4.622;2022-11-20T16:46:25;34.17;;;15.38;;